sensor_id;sensor_type;location;lat;lon;timestamp;P1;durP1;ratioP1;P2;durP2;ratioP2
9422;SDS011;65863;49.506;10.400;2023-02-21T00:00:25;4.17;;;3.20;;
9422;SDS011;65863;49.506;10.400;2023-02-21T00:03:28;6.70;;;3.40;;
9422;SDS011;65863;49.506;10.400;2023-02-21T00:06:31;9.57;;;3.50;;
9422;SDS011;65863;49.506;10.400;2023-02-21T00:09:34;8.07;;;3.13;;
9422;SDS011;65863;49.506;10.400;2023-02-21T00:12:36;3.60;;;2.90;;
9422;SDS011;65863;49.506;10.400;2023-02-21T00:15:39;8.67;;;3.47;;
9422;SDS011;65863;49.506;10.400;2023-02-21T00:18:42;5.77;;;3.23;;
9422;SDS011;65863;49.506;10.400;2023-02-21T00:21:45;11.50;;;3.83;;
9422;SDS011;65863;49.506;10.400;2023-02-21T00:24:47;6.80;;;3.03;;
9422;SDS011;65863;49.506;10.400;2023-02-21T00:27:50;7.87;;;3.23;;
9422;SDS011;65863;49.506;10.400;2023-02-21T00:30:53;6.30;;;3.37;;
9422;SDS011;65863;49.506;10.400;2023-02-21T00:33:56;8.53;;;3.70;;
9422;SDS011;65863;49.506;10.400;2023-02-21T00:36:59;7.23;;;3.40;;
9422;SDS011;65863;49.506;10.400;2023-02-21T00:40:01;9.03;;;3.30;;
9422;SDS011;65863;49.506;10.400;2023-02-21T00:43:04;5.33;;;3.13;;
9422;SDS011;65863;49.506;10.400;2023-02-21T00:46:08;8.20;;;3.33;;
9422;SDS011;65863;49.506;10.400;2023-02-21T00:49:12;6.43;;;3.00;;
9422;SDS011;65863;49.506;10.400;2023-02-21T00:52:15;4.67;;;3.10;;
9422;SDS011;65863;49.506;10.400;2023-02-21T00:55:18;7.87;;;3.87;;
9422;SDS011;65863;49.506;10.400;2023-02-21T00:58:21;6.13;;;3.57;;
9422;SDS011;65863;49.506;10.400;2023-02-21T01:01:24;5.40;;;3.20;;
9422;SDS011;65863;49.506;10.400;2023-02-21T01:04:27;7.83;;;3.40;;
9422;SDS011;65863;49.506;10.400;2023-02-21T01:07:31;7.93;;;3.80;;
9422;SDS011;65863;49.506;10.400;2023-02-21T01:10:34;8.43;;;3.67;;
9422;SDS011;65863;49.506;10.400;2023-02-21T01:13:37;8.60;;;3.43;;
9422;SDS011;65863;49.506;10.400;2023-02-21T01:16:40;5.67;;;3.23;;
9422;SDS011;65863;49.506;10.400;2023-02-21T01:19:43;4.90;;;3.53;;
9422;SDS011;65863;49.506;10.400;2023-02-21T01:22:46;9.43;;;3.93;;
9422;SDS011;65863;49.506;10.400;2023-02-21T01:25:49;8.33;;;4.40;;
9422;SDS011;65863;49.506;10.400;2023-02-21T01:28:51;6.53;;;3.80;;
9422;SDS011;65863;49.506;10.400;2023-02-21T01:31:54;6.80;;;3.77;;
9422;SDS011;65863;49.506;10.400;2023-02-21T01:34:57;10.53;;;4.03;;
9422;SDS011;65863;49.506;10.400;2023-02-21T01:37:59;6.03;;;3.43;;
9422;SDS011;65863;49.506;10.400;2023-02-21T01:41:02;6.37;;;3.97;;
9422;SDS011;65863;49.506;10.400;2023-02-21T01:44:20;9.83;;;3.70;;
9422;SDS011;65863;49.506;10.400;2023-02-21T01:47:28;6.53;;;3.40;;
9422;SDS011;65863;49.506;10.400;2023-02-21T01:50:32;8.13;;;4.07;;
9422;SDS011;65863;49.506;10.400;2023-02-21T01:53:35;5.57;;;3.60;;
9422;SDS011;65863;49.506;10.400;2023-02-21T01:56:37;7.87;;;3.77;;
9422;SDS011;65863;49.506;10.400;2023-02-21T01:59:41;4.73;;;2.97;;
9422;SDS011;65863;49.506;10.400;2023-02-21T02:03:00;6.03;;;3.60;;
9422;SDS011;65863;49.506;10.400;2023-02-21T02:06:09;6.00;;;3.10;;
9422;SDS011;65863;49.506;10.400;2023-02-21T02:09:20;6.50;;;2.97;;
9422;SDS011;65863;49.506;10.400;2023-02-21T02:19:02;5.17;;;3.63;;
9422;SDS011;65863;49.506;10.400;2023-02-21T02:27:46;6.77;;;3.50;;
9422;SDS011;65863;49.506;10.400;2023-02-21T02:37:22;8.63;;;4.40;;
9422;SDS011;65863;49.506;10.400;2023-02-21T02:46:49;6.73;;;3.93;;
9422;SDS011;65863;49.506;10.400;2023-02-21T02:49:37;9.40;;;4.00;;
9422;SDS011;65863;49.506;10.400;2023-02-21T02:52:25;8.90;;;4.40;;
9422;SDS011;65863;49.506;10.400;2023-02-21T02:58:14;4.83;;;3.53;;
9422;SDS011;65863;49.506;10.400;2023-02-21T03:01:14;7.77;;;3.90;;
9422;SDS011;65863;49.506;10.400;2023-02-21T03:07:57;8.10;;;3.93;;
9422;SDS011;65863;49.506;10.400;2023-02-21T03:10:49;9.27;;;3.97;;
9422;SDS011;65863;49.506;10.400;2023-02-21T03:16:54;11.13;;;4.03;;
9422;SDS011;65863;49.506;10.400;2023-02-21T03:19:44;8.47;;;4.17;;
9422;SDS011;65863;49.506;10.400;2023-02-21T03:22:31;5.87;;;3.97;;
9422;SDS011;65863;49.506;10.400;2023-02-21T03:25:15;4.70;;;3.73;;
9422;SDS011;65863;49.506;10.400;2023-02-21T03:28:03;7.53;;;3.90;;
9422;SDS011;65863;49.506;10.400;2023-02-21T03:30:57;7.77;;;3.70;;
9422;SDS011;65863;49.506;10.400;2023-02-21T03:33:42;7.13;;;3.77;;
9422;SDS011;65863;49.506;10.400;2023-02-21T03:36:27;4.97;;;3.53;;
9422;SDS011;65863;49.506;10.400;2023-02-21T03:39:12;7.70;;;4.33;;
9422;SDS011;65863;49.506;10.400;2023-02-21T03:41:57;6.83;;;3.80;;
9422;SDS011;65863;49.506;10.400;2023-02-21T03:44:41;8.27;;;4.17;;
9422;SDS011;65863;49.506;10.400;2023-02-21T03:47:25;8.47;;;3.90;;
9422;SDS011;65863;49.506;10.400;2023-02-21T03:50:09;5.57;;;3.57;;
9422;SDS011;65863;49.506;10.400;2023-02-21T03:52:56;8.00;;;4.17;;
9422;SDS011;65863;49.506;10.400;2023-02-21T03:55:41;13.83;;;3.60;;
9422;SDS011;65863;49.506;10.400;2023-02-21T03:58:31;7.20;;;3.90;;
9422;SDS011;65863;49.506;10.400;2023-02-21T04:01:15;8.23;;;3.93;;
9422;SDS011;65863;49.506;10.400;2023-02-21T04:03:59;8.17;;;4.10;;
9422;SDS011;65863;49.506;10.400;2023-02-21T04:06:44;9.53;;;4.10;;
9422;SDS011;65863;49.506;10.400;2023-02-21T04:09:29;7.77;;;4.13;;
9422;SDS011;65863;49.506;10.400;2023-02-21T04:12:13;9.47;;;4.07;;
9422;SDS011;65863;49.506;10.400;2023-02-21T04:14:57;7.13;;;3.90;;
9422;SDS011;65863;49.506;10.400;2023-02-21T04:17:42;10.17;;;4.07;;
9422;SDS011;65863;49.506;10.400;2023-02-21T04:20:26;5.43;;;4.03;;
9422;SDS011;65863;49.506;10.400;2023-02-21T04:23:20;6.23;;;4.13;;
9422;SDS011;65863;49.506;10.400;2023-02-21T04:26:06;6.50;;;4.47;;
9422;SDS011;65863;49.506;10.400;2023-02-21T04:29:02;7.97;;;4.13;;
9422;SDS011;65863;49.506;10.400;2023-02-21T04:31:46;13.50;;;5.13;;
9422;SDS011;65863;49.506;10.400;2023-02-21T04:34:33;8.60;;;4.30;;
9422;SDS011;65863;49.506;10.400;2023-02-21T04:37:17;8.63;;;3.87;;
9422;SDS011;65863;49.506;10.400;2023-02-21T04:40:02;14.87;;;5.20;;
9422;SDS011;65863;49.506;10.400;2023-02-21T04:42:50;6.83;;;4.17;;
9422;SDS011;65863;49.506;10.400;2023-02-21T04:45:35;7.07;;;4.97;;
9422;SDS011;65863;49.506;10.400;2023-02-21T04:48:19;11.90;;;4.60;;
9422;SDS011;65863;49.506;10.400;2023-02-21T04:51:03;9.47;;;4.73;;
9422;SDS011;65863;49.506;10.400;2023-02-21T04:53:47;10.00;;;5.30;;
9422;SDS011;65863;49.506;10.400;2023-02-21T04:56:32;7.53;;;4.53;;
9422;SDS011;65863;49.506;10.400;2023-02-21T04:59:16;12.00;;;4.57;;
9422;SDS011;65863;49.506;10.400;2023-02-21T05:02:00;6.67;;;4.83;;
9422;SDS011;65863;49.506;10.400;2023-02-21T05:04:44;9.00;;;4.70;;
9422;SDS011;65863;49.506;10.400;2023-02-21T05:07:28;9.83;;;4.40;;
9422;SDS011;65863;49.506;10.400;2023-02-21T05:10:13;9.17;;;4.20;;
9422;SDS011;65863;49.506;10.400;2023-02-21T05:12:58;12.47;;;4.63;;
9422;SDS011;65863;49.506;10.400;2023-02-21T05:15:42;10.03;;;4.33;;
9422;SDS011;65863;49.506;10.400;2023-02-21T05:18:27;8.40;;;4.67;;
9422;SDS011;65863;49.506;10.400;2023-02-21T05:21:11;11.17;;;4.10;;
9422;SDS011;65863;49.506;10.400;2023-02-21T05:23:56;13.43;;;4.70;;
9422;SDS011;65863;49.506;10.400;2023-02-21T05:26:40;9.13;;;4.77;;
9422;SDS011;65863;49.506;10.400;2023-02-21T05:29:24;8.03;;;4.97;;
9422;SDS011;65863;49.506;10.400;2023-02-21T05:32:09;12.17;;;5.20;;
9422;SDS011;65863;49.506;10.400;2023-02-21T05:34:53;9.83;;;5.37;;
9422;SDS011;65863;49.506;10.400;2023-02-21T05:37:37;9.23;;;5.00;;
9422;SDS011;65863;49.506;10.400;2023-02-21T05:40:21;10.43;;;4.73;;
9422;SDS011;65863;49.506;10.400;2023-02-21T05:43:05;11.03;;;5.10;;
9422;SDS011;65863;49.506;10.400;2023-02-21T05:45:49;7.00;;;5.10;;
9422;SDS011;65863;49.506;10.400;2023-02-21T05:48:33;9.13;;;5.53;;
9422;SDS011;65863;49.506;10.400;2023-02-21T05:51:17;11.43;;;5.07;;
9422;SDS011;65863;49.506;10.400;2023-02-21T05:54:01;6.63;;;4.50;;
9422;SDS011;65863;49.506;10.400;2023-02-21T05:56:47;9.23;;;4.60;;
9422;SDS011;65863;49.506;10.400;2023-02-21T05:59:33;7.00;;;5.00;;
9422;SDS011;65863;49.506;10.400;2023-02-21T06:02:17;8.00;;;4.43;;
9422;SDS011;65863;49.506;10.400;2023-02-21T06:05:11;9.20;;;5.00;;
9422;SDS011;65863;49.506;10.400;2023-02-21T06:07:55;5.37;;;4.43;;
9422;SDS011;65863;49.506;10.400;2023-02-21T06:10:39;6.27;;;4.80;;
9422;SDS011;65863;49.506;10.400;2023-02-21T06:13:23;6.67;;;4.83;;
9422;SDS011;65863;49.506;10.400;2023-02-21T06:16:08;9.33;;;5.30;;
9422;SDS011;65863;49.506;10.400;2023-02-21T06:18:53;8.63;;;5.07;;
9422;SDS011;65863;49.506;10.400;2023-02-21T06:21:38;7.73;;;4.87;;
9422;SDS011;65863;49.506;10.400;2023-02-21T06:24:24;11.07;;;5.10;;
9422;SDS011;65863;49.506;10.400;2023-02-21T06:27:08;8.47;;;5.47;;
9422;SDS011;65863;49.506;10.400;2023-02-21T06:29:52;5.97;;;4.87;;
9422;SDS011;65863;49.506;10.400;2023-02-21T06:32:36;10.43;;;5.67;;
9422;SDS011;65863;49.506;10.400;2023-02-21T06:35:20;11.60;;;5.93;;
9422;SDS011;65863;49.506;10.400;2023-02-21T06:38:04;7.53;;;4.87;;
9422;SDS011;65863;49.506;10.400;2023-02-21T06:40:48;9.93;;;4.60;;
9422;SDS011;65863;49.506;10.400;2023-02-21T06:43:32;10.03;;;4.97;;
9422;SDS011;65863;49.506;10.400;2023-02-21T06:46:17;10.53;;;5.40;;
9422;SDS011;65863;49.506;10.400;2023-02-21T06:49:03;9.10;;;4.90;;
9422;SDS011;65863;49.506;10.400;2023-02-21T06:51:47;11.87;;;5.57;;
9422;SDS011;65863;49.506;10.400;2023-02-21T06:54:31;6.80;;;4.83;;
9422;SDS011;65863;49.506;10.400;2023-02-21T06:57:15;8.60;;;5.17;;
9422;SDS011;65863;49.506;10.400;2023-02-21T06:59:59;9.83;;;5.23;;
9422;SDS011;65863;49.506;10.400;2023-02-21T07:02:43;12.43;;;5.57;;
9422;SDS011;65863;49.506;10.400;2023-02-21T07:05:28;12.50;;;5.80;;
9422;SDS011;65863;49.506;10.400;2023-02-21T07:08:17;7.53;;;4.93;;
9422;SDS011;65863;49.506;10.400;2023-02-21T07:11:00;11.60;;;5.00;;
9422;SDS011;65863;49.506;10.400;2023-02-21T07:13:48;6.77;;;5.10;;
9422;SDS011;65863;49.506;10.400;2023-02-21T07:16:33;6.83;;;5.17;;
9422;SDS011;65863;49.506;10.400;2023-02-21T07:19:17;6.30;;;4.97;;
9422;SDS011;65863;49.506;10.400;2023-02-21T07:22:02;10.20;;;5.40;;
9422;SDS011;65863;49.506;10.400;2023-02-21T07:24:46;12.33;;;5.07;;
9422;SDS011;65863;49.506;10.400;2023-02-21T07:27:30;7.33;;;5.03;;
9422;SDS011;65863;49.506;10.400;2023-02-21T07:30:14;9.77;;;5.57;;
9422;SDS011;65863;49.506;10.400;2023-02-21T07:32:59;9.60;;;5.77;;
9422;SDS011;65863;49.506;10.400;2023-02-21T07:35:43;9.70;;;5.13;;
9422;SDS011;65863;49.506;10.400;2023-02-21T07:38:29;8.77;;;5.43;;
9422;SDS011;65863;49.506;10.400;2023-02-21T07:41:14;9.73;;;5.50;;
9422;SDS011;65863;49.506;10.400;2023-02-21T07:43:59;8.40;;;5.57;;
9422;SDS011;65863;49.506;10.400;2023-02-21T07:46:43;8.47;;;5.17;;
9422;SDS011;65863;49.506;10.400;2023-02-21T07:49:29;11.27;;;5.77;;
9422;SDS011;65863;49.506;10.400;2023-02-21T07:52:13;7.50;;;5.30;;
9422;SDS011;65863;49.506;10.400;2023-02-21T07:54:57;12.90;;;5.30;;
9422;SDS011;65863;49.506;10.400;2023-02-21T07:57:41;12.63;;;5.57;;
9422;SDS011;65863;49.506;10.400;2023-02-21T08:00:25;7.57;;;5.40;;
9422;SDS011;65863;49.506;10.400;2023-02-21T08:03:12;8.43;;;4.93;;
9422;SDS011;65863;49.506;10.400;2023-02-21T08:05:57;11.00;;;5.00;;
9422;SDS011;65863;49.506;10.400;2023-02-21T08:08:43;9.07;;;5.20;;
9422;SDS011;65863;49.506;10.400;2023-02-21T08:11:27;9.23;;;5.37;;
9422;SDS011;65863;49.506;10.400;2023-02-21T08:14:11;7.33;;;5.50;;
9422;SDS011;65863;49.506;10.400;2023-02-21T08:16:55;8.37;;;5.37;;
9422;SDS011;65863;49.506;10.400;2023-02-21T08:19:39;10.87;;;5.83;;
9422;SDS011;65863;49.506;10.400;2023-02-21T08:22:23;7.93;;;5.13;;
9422;SDS011;65863;49.506;10.400;2023-02-21T08:25:08;7.47;;;5.23;;
9422;SDS011;65863;49.506;10.400;2023-02-21T08:27:53;9.13;;;5.70;;
9422;SDS011;65863;49.506;10.400;2023-02-21T08:30:37;6.73;;;4.90;;
9422;SDS011;65863;49.506;10.400;2023-02-21T08:33:22;8.37;;;5.37;;
9422;SDS011;65863;49.506;10.400;2023-02-21T08:36:06;10.60;;;5.20;;
9422;SDS011;65863;49.506;10.400;2023-02-21T08:38:50;11.27;;;5.43;;
9422;SDS011;65863;49.506;10.400;2023-02-21T08:41:41;8.30;;;5.13;;
9422;SDS011;65863;49.506;10.400;2023-02-21T08:44:31;7.70;;;4.97;;
9422;SDS011;65863;49.506;10.400;2023-02-21T08:47:15;11.20;;;5.20;;
9422;SDS011;65863;49.506;10.400;2023-02-21T08:50:00;7.53;;;4.70;;
9422;SDS011;65863;49.506;10.400;2023-02-21T08:52:44;9.03;;;5.80;;
9422;SDS011;65863;49.506;10.400;2023-02-21T08:55:29;6.13;;;4.97;;
9422;SDS011;65863;49.506;10.400;2023-02-21T08:58:13;6.60;;;4.77;;
9422;SDS011;65863;49.506;10.400;2023-02-21T09:00:57;8.53;;;5.37;;
9422;SDS011;65863;49.506;10.400;2023-02-21T09:03:41;9.23;;;5.23;;
9422;SDS011;65863;49.506;10.400;2023-02-21T09:06:25;7.73;;;5.37;;
9422;SDS011;65863;49.506;10.400;2023-02-21T09:09:09;7.40;;;4.90;;
9422;SDS011;65863;49.506;10.400;2023-02-21T09:11:53;8.47;;;4.80;;
9422;SDS011;65863;49.506;10.400;2023-02-21T09:14:38;9.67;;;4.40;;
9422;SDS011;65863;49.506;10.400;2023-02-21T09:17:23;6.83;;;5.10;;
9422;SDS011;65863;49.506;10.400;2023-02-21T09:20:07;8.60;;;4.97;;
9422;SDS011;65863;49.506;10.400;2023-02-21T09:22:53;11.93;;;5.73;;
9422;SDS011;65863;49.506;10.400;2023-02-21T09:25:37;7.87;;;4.80;;
9422;SDS011;65863;49.506;10.400;2023-02-21T09:28:21;7.97;;;4.77;;
9422;SDS011;65863;49.506;10.400;2023-02-21T09:31:05;10.40;;;4.60;;
9422;SDS011;65863;49.506;10.400;2023-02-21T09:33:50;6.50;;;5.07;;
9422;SDS011;65863;49.506;10.400;2023-02-21T09:36:36;8.57;;;4.80;;
9422;SDS011;65863;49.506;10.400;2023-02-21T09:39:21;8.30;;;4.67;;
9422;SDS011;65863;49.506;10.400;2023-02-21T09:42:06;9.60;;;5.27;;
9422;SDS011;65863;49.506;10.400;2023-02-21T09:44:50;8.30;;;5.17;;
9422;SDS011;65863;49.506;10.400;2023-02-21T09:47:35;9.47;;;5.47;;
9422;SDS011;65863;49.506;10.400;2023-02-21T09:50:23;5.20;;;4.47;;
9422;SDS011;65863;49.506;10.400;2023-02-21T09:53:14;8.50;;;5.37;;
9422;SDS011;65863;49.506;10.400;2023-02-21T09:56:04;7.33;;;5.07;;
9422;SDS011;65863;49.506;10.400;2023-02-21T09:58:50;5.73;;;4.50;;
9422;SDS011;65863;49.506;10.400;2023-02-21T10:14:08;7.47;;;5.37;;
9422;SDS011;65863;49.506;10.400;2023-02-21T10:20:10;7.13;;;5.17;;
9422;SDS011;65863;49.506;10.400;2023-02-21T10:22:58;7.63;;;4.70;;
9422;SDS011;65863;49.506;10.400;2023-02-21T10:25:45;8.10;;;4.63;;
9422;SDS011;65863;49.506;10.400;2023-02-21T10:28:29;7.40;;;5.30;;
9422;SDS011;65863;49.506;10.400;2023-02-21T10:31:18;7.97;;;4.70;;
9422;SDS011;65863;49.506;10.400;2023-02-21T10:34:14;7.23;;;4.60;;
9422;SDS011;65863;49.506;10.400;2023-02-21T10:46:12;5.00;;;4.03;;
9422;SDS011;65863;49.506;10.400;2023-02-21T10:49:24;5.53;;;3.90;;
9422;SDS011;65863;49.506;10.400;2023-02-21T10:52:13;5.97;;;3.97;;
9422;SDS011;65863;49.506;10.400;2023-02-21T10:57:56;4.50;;;3.30;;
9422;SDS011;65863;49.506;10.400;2023-02-21T11:00:44;5.73;;;3.43;;
9422;SDS011;65863;49.506;10.400;2023-02-21T11:03:30;3.80;;;2.87;;
9422;SDS011;65863;49.506;10.400;2023-02-21T11:06:23;4.07;;;3.00;;
9422;SDS011;65863;49.506;10.400;2023-02-21T11:15:04;4.77;;;3.17;;
9422;SDS011;65863;49.506;10.400;2023-02-21T11:18:02;4.60;;;3.37;;
9422;SDS011;65863;49.506;10.400;2023-02-21T11:20:49;4.43;;;3.03;;
9422;SDS011;65863;49.506;10.400;2023-02-21T11:23:35;3.87;;;2.90;;
9422;SDS011;65863;49.506;10.400;2023-02-21T11:26:19;2.70;;;2.40;;
9422;SDS011;65863;49.506;10.400;2023-02-21T11:29:13;3.27;;;2.97;;
9422;SDS011;65863;49.506;10.400;2023-02-21T11:31:59;4.00;;;2.87;;
9422;SDS011;65863;49.506;10.400;2023-02-21T11:35:19;3.07;;;2.63;;
9422;SDS011;65863;49.506;10.400;2023-02-21T11:38:33;2.37;;;1.73;;
9422;SDS011;65863;49.506;10.400;2023-02-21T11:47:14;3.00;;;2.30;;
9422;SDS011;65863;49.506;10.400;2023-02-21T11:53:19;3.10;;;2.20;;
9422;SDS011;65863;49.506;10.400;2023-02-21T12:03:05;2.43;;;2.00;;
9422;SDS011;65863;49.506;10.400;2023-02-21T12:08:50;1.40;;;1.30;;
9422;SDS011;65863;49.506;10.400;2023-02-21T12:11:43;3.40;;;1.50;;
9422;SDS011;65863;49.506;10.400;2023-02-21T12:14:48;1.67;;;1.50;;
9422;SDS011;65863;49.506;10.400;2023-02-21T12:17:41;1.77;;;1.30;;
9422;SDS011;65863;49.506;10.400;2023-02-21T12:20:37;1.30;;;1.10;;
9422;SDS011;65863;49.506;10.400;2023-02-21T12:29:37;0.70;;;0.70;;
9422;SDS011;65863;49.506;10.400;2023-02-21T12:39:09;1.13;;;1.03;;
9422;SDS011;65863;49.506;10.400;2023-02-21T12:42:20;1.07;;;0.83;;
9422;SDS011;65863;49.506;10.400;2023-02-21T12:51:17;1.47;;;0.90;;
9422;SDS011;65863;49.506;10.400;2023-02-21T12:54:05;1.00;;;1.00;;
9422;SDS011;65863;49.506;10.400;2023-02-21T12:57:06;0.80;;;0.80;;
9422;SDS011;65863;49.506;10.400;2023-02-21T13:00:05;1.27;;;1.00;;
9422;SDS011;65863;49.506;10.400;2023-02-21T13:03:05;0.67;;;0.67;;
9422;SDS011;65863;49.506;10.400;2023-02-21T13:06:27;0.97;;;0.80;;
9422;SDS011;65863;49.506;10.400;2023-02-21T13:09:20;0.90;;;0.90;;
9422;SDS011;65863;49.506;10.400;2023-02-21T13:12:07;1.23;;;1.13;;
9422;SDS011;65863;49.506;10.400;2023-02-21T13:14:57;1.90;;;1.33;;
9422;SDS011;65863;49.506;10.400;2023-02-21T13:18:08;1.27;;;1.17;;
9422;SDS011;65863;49.506;10.400;2023-02-21T13:24:09;1.47;;;1.37;;
9422;SDS011;65863;49.506;10.400;2023-02-21T13:27:22;1.67;;;1.57;;
9422;SDS011;65863;49.506;10.400;2023-02-21T13:30:22;1.43;;;1.20;;
9422;SDS011;65863;49.506;10.400;2023-02-21T13:36:31;2.17;;;1.23;;
9422;SDS011;65863;49.506;10.400;2023-02-21T13:39:27;1.13;;;1.00;;
9422;SDS011;65863;49.506;10.400;2023-02-21T13:42:15;1.77;;;1.30;;
9422;SDS011;65863;49.506;10.400;2023-02-21T13:45:08;2.07;;;1.13;;
9422;SDS011;65863;49.506;10.400;2023-02-21T13:50:45;1.40;;;1.30;;
9422;SDS011;65863;49.506;10.400;2023-02-21T13:53:30;2.03;;;1.70;;
9422;SDS011;65863;49.506;10.400;2023-02-21T13:56:17;1.60;;;1.50;;
9422;SDS011;65863;49.506;10.400;2023-02-21T14:02:14;2.00;;;1.70;;
9422;SDS011;65863;49.506;10.400;2023-02-21T14:05:04;3.90;;;1.70;;
9422;SDS011;65863;49.506;10.400;2023-02-21T14:07:56;2.10;;;1.60;;
9422;SDS011;65863;49.506;10.400;2023-02-21T14:10:54;1.77;;;1.63;;
9422;SDS011;65863;49.506;10.400;2023-02-21T14:16:36;1.53;;;1.43;;
9422;SDS011;65863;49.506;10.400;2023-02-21T14:19:40;1.70;;;1.60;;
9422;SDS011;65863;49.506;10.400;2023-02-21T14:22:27;2.43;;;1.73;;
9422;SDS011;65863;49.506;10.400;2023-02-21T14:25:17;2.10;;;1.70;;
9422;SDS011;65863;49.506;10.400;2023-02-21T14:28:47;3.10;;;1.70;;
9422;SDS011;65863;49.506;10.400;2023-02-21T14:37:42;2.00;;;1.80;;
9422;SDS011;65863;49.506;10.400;2023-02-21T14:49:59;5.33;;;1.87;;
9422;SDS011;65863;49.506;10.400;2023-02-21T15:03:08;2.37;;;1.77;;
9422;SDS011;65863;49.506;10.400;2023-02-21T15:06:08;1.67;;;1.57;;
9422;SDS011;65863;49.506;10.400;2023-02-21T15:08:56;1.47;;;1.37;;
9422;SDS011;65863;49.506;10.400;2023-02-21T15:11:40;2.40;;;1.50;;
9422;SDS011;65863;49.506;10.400;2023-02-21T15:14:26;3.90;;;1.67;;
9422;SDS011;65863;49.506;10.400;2023-02-21T15:17:21;1.80;;;1.53;;
9422;SDS011;65863;49.506;10.400;2023-02-21T15:20:15;2.33;;;1.50;;
9422;SDS011;65863;49.506;10.400;2023-02-21T15:25:53;2.83;;;1.70;;
9422;SDS011;65863;49.506;10.400;2023-02-21T15:28:39;2.70;;;1.60;;
9422;SDS011;65863;49.506;10.400;2023-02-21T15:31:24;2.87;;;1.60;;
9422;SDS011;65863;49.506;10.400;2023-02-21T15:34:15;2.20;;;1.63;;
9422;SDS011;65863;49.506;10.400;2023-02-21T15:37:02;2.97;;;1.43;;
9422;SDS011;65863;49.506;10.400;2023-02-21T15:40:16;1.63;;;1.50;;
9422;SDS011;65863;49.506;10.400;2023-02-21T15:43:02;4.23;;;1.60;;
9422;SDS011;65863;49.506;10.400;2023-02-21T15:45:48;1.90;;;1.77;;
9422;SDS011;65863;49.506;10.400;2023-02-21T15:48:34;2.40;;;1.73;;
9422;SDS011;65863;49.506;10.400;2023-02-21T15:51:18;1.87;;;1.70;;
9422;SDS011;65863;49.506;10.400;2023-02-21T15:54:06;2.30;;;1.70;;
9422;SDS011;65863;49.506;10.400;2023-02-21T15:57:00;2.33;;;1.60;;
9422;SDS011;65863;49.506;10.400;2023-02-21T16:00:15;2.30;;;1.70;;
9422;SDS011;65863;49.506;10.400;2023-02-21T16:17:42;2.40;;;1.80;;
9422;SDS011;65863;49.506;10.400;2023-02-21T16:20:34;1.00;;;0.90;;
9422;SDS011;65863;49.506;10.400;2023-02-21T16:23:24;1.20;;;1.10;;
9422;SDS011;65863;49.506;10.400;2023-02-21T16:28:58;0.87;;;0.70;;
9422;SDS011;65863;49.506;10.400;2023-02-21T16:31:44;1.33;;;1.17;;
9422;SDS011;65863;49.506;10.400;2023-02-21T16:34:30;0.70;;;0.70;;
9422;SDS011;65863;49.506;10.400;2023-02-21T16:37:15;1.57;;;0.90;;
9422;SDS011;65863;49.506;10.400;2023-02-21T16:39:59;0.80;;;0.80;;
9422;SDS011;65863;49.506;10.400;2023-02-21T16:42:44;0.90;;;0.90;;
9422;SDS011;65863;49.506;10.400;2023-02-21T16:45:28;1.30;;;1.20;;
9422;SDS011;65863;49.506;10.400;2023-02-21T16:48:18;1.10;;;1.10;;
9422;SDS011;65863;49.506;10.400;2023-02-21T16:51:11;2.00;;;1.10;;
9422;SDS011;65863;49.506;10.400;2023-02-21T16:53:56;1.97;;;1.20;;
9422;SDS011;65863;49.506;10.400;2023-02-21T16:56:41;2.53;;;1.13;;
9422;SDS011;65863;49.506;10.400;2023-02-21T16:59:29;1.20;;;1.20;;
9422;SDS011;65863;49.506;10.400;2023-02-21T17:02:13;2.08;;;1.30;;
9422;SDS011;65863;49.506;10.400;2023-02-21T17:04:57;1.50;;;1.30;;
9422;SDS011;65863;49.506;10.400;2023-02-21T17:07:41;1.80;;;1.43;;
9422;SDS011;65863;49.506;10.400;2023-02-21T17:10:26;3.37;;;1.60;;
9422;SDS011;65863;49.506;10.400;2023-02-21T17:13:10;2.53;;;1.50;;
9422;SDS011;65863;49.506;10.400;2023-02-21T17:16:00;4.23;;;1.73;;
9422;SDS011;65863;49.506;10.400;2023-02-21T17:18:44;2.80;;;1.80;;
9422;SDS011;65863;49.506;10.400;2023-02-21T17:21:29;2.20;;;2.00;;
9422;SDS011;65863;49.506;10.400;2023-02-21T17:24:14;3.87;;;2.17;;
9422;SDS011;65863;49.506;10.400;2023-02-21T17:26:58;2.78;;;2.20;;
9422;SDS011;65863;49.506;10.400;2023-02-21T17:29:42;2.90;;;2.00;;
9422;SDS011;65863;49.506;10.400;2023-02-21T17:32:26;2.53;;;1.70;;
9422;SDS011;65863;49.506;10.400;2023-02-21T17:35:10;2.20;;;2.00;;
9422;SDS011;65863;49.506;10.400;2023-02-21T17:37:57;2.37;;;2.17;;
9422;SDS011;65863;49.506;10.400;2023-02-21T17:40:44;3.07;;;2.10;;
9422;SDS011;65863;49.506;10.400;2023-02-21T17:43:29;2.60;;;1.83;;
9422;SDS011;65863;49.506;10.400;2023-02-21T17:46:14;2.50;;;2.20;;
9422;SDS011;65863;49.506;10.400;2023-02-21T17:49:00;3.40;;;2.13;;
9422;SDS011;65863;49.506;10.400;2023-02-21T17:51:44;2.50;;;2.30;;
9422;SDS011;65863;49.506;10.400;2023-02-21T17:54:29;2.80;;;2.40;;
9422;SDS011;65863;49.506;10.400;2023-02-21T17:57:13;3.77;;;2.17;;
9422;SDS011;65863;49.506;10.400;2023-02-21T17:59:59;2.30;;;2.10;;
9422;SDS011;65863;49.506;10.400;2023-02-21T18:02:44;2.30;;;2.07;;
9422;SDS011;65863;49.506;10.400;2023-02-21T18:05:31;2.10;;;2.00;;
9422;SDS011;65863;49.506;10.400;2023-02-21T18:08:17;5.60;;;2.50;;
9422;SDS011;65863;49.506;10.400;2023-02-21T18:11:01;2.17;;;1.67;;
9422;SDS011;65863;49.506;10.400;2023-02-21T18:13:45;2.40;;;2.20;;
9422;SDS011;65863;49.506;10.400;2023-02-21T18:16:30;2.50;;;2.27;;
9422;SDS011;65863;49.506;10.400;2023-02-21T18:19:14;2.33;;;2.13;;
9422;SDS011;65863;49.506;10.400;2023-02-21T18:21:58;4.17;;;2.00;;
9422;SDS011;65863;49.506;10.400;2023-02-21T18:24:48;2.57;;;2.37;;
9422;SDS011;65863;49.506;10.400;2023-02-21T18:27:31;4.13;;;2.70;;
9422;SDS011;65863;49.506;10.400;2023-02-21T18:30:16;3.33;;;2.60;;
9422;SDS011;65863;49.506;10.400;2023-02-21T18:33:00;3.17;;;2.87;;
9422;SDS011;65863;49.506;10.400;2023-02-21T18:35:44;3.07;;;2.70;;
9422;SDS011;65863;49.506;10.400;2023-02-21T18:38:29;2.97;;;2.67;;
9422;SDS011;65863;49.506;10.400;2023-02-21T18:41:14;5.37;;;2.77;;
9422;SDS011;65863;49.506;10.400;2023-02-21T18:43:59;3.70;;;2.60;;
9422;SDS011;65863;49.506;10.400;2023-02-21T18:46:50;4.83;;;4.00;;
9422;SDS011;65863;49.506;10.400;2023-02-21T18:49:37;9.65;;;7.82;;
9422;SDS011;65863;49.506;10.400;2023-02-21T18:52:22;8.93;;;6.20;;
9422;SDS011;65863;49.506;10.400;2023-02-21T18:55:06;9.67;;;7.50;;
9422;SDS011;65863;49.506;10.400;2023-02-21T18:57:50;10.17;;;7.90;;
9422;SDS011;65863;49.506;10.400;2023-02-21T19:00:35;10.63;;;8.27;;
9422;SDS011;65863;49.506;10.400;2023-02-21T19:03:21;8.90;;;7.03;;
9422;SDS011;65863;49.506;10.400;2023-02-21T19:06:10;8.87;;;5.97;;
9422;SDS011;65863;49.506;10.400;2023-02-21T19:08:55;6.87;;;5.63;;
9422;SDS011;65863;49.506;10.400;2023-02-21T19:11:39;8.53;;;6.30;;
9422;SDS011;65863;49.506;10.400;2023-02-21T19:14:22;7.97;;;6.07;;
9422;SDS011;65863;49.506;10.400;2023-02-21T19:17:07;6.97;;;6.27;;
9422;SDS011;65863;49.506;10.400;2023-02-21T19:19:52;6.40;;;5.77;;
9422;SDS011;65863;49.506;10.400;2023-02-21T19:22:36;5.40;;;4.43;;
9422;SDS011;65863;49.506;10.400;2023-02-21T19:25:21;5.27;;;4.77;;
9422;SDS011;65863;49.506;10.400;2023-02-21T19:28:09;5.40;;;4.90;;
9422;SDS011;65863;49.506;10.400;2023-02-21T19:30:53;6.80;;;5.77;;
9422;SDS011;65863;49.506;10.400;2023-02-21T19:33:37;4.90;;;4.40;;
9422;SDS011;65863;49.506;10.400;2023-02-21T19:36:22;5.43;;;4.47;;
9422;SDS011;65863;49.506;10.400;2023-02-21T19:39:07;5.07;;;4.57;;
9422;SDS011;65863;49.506;10.400;2023-02-21T19:41:51;5.97;;;5.30;;
9422;SDS011;65863;49.506;10.400;2023-02-21T19:44:36;5.20;;;4.70;;
9422;SDS011;65863;49.506;10.400;2023-02-21T19:47:20;5.00;;;4.23;;